»·PEaware :: N2710U KRDD-KVUO

N2710U :: KRDD-KVUO

FLIGHT INFORMATION

Flight Status: Arrived
Operator: Privately registered:
United States
More flights under this callsign
Pilot: Nathan P. (3026)
Aircraft: CESSNA T210 TURBO CENTURION
(T210)
More flights by this aircraft type
Origin: KRDD Redding Mun
United States
Destination: KVUO Pearson
United States
More flights between these airports :: More routes between these airports
Route: SHA3 FJS V23 BTG
File this flight plan on PilotEdge
Remarks:
Altitude:
(Current/Filed)
20,000ft
Speed:
(Current/Filed)
140kts
Departed: 25-Jun-19 01:46 PM
Arrived: 25-Jun-19 03:50 PM
Distance/Time
Traveled:
307nm/2:04
Distance/Time
To Go:
Arrived

Flight Plot

Page will automatically refresh every two minutes.

Flight plan parsing failed; only flown route is shown


Map Options




Map Legend


Flown Route
Filed Route
Departure Airport
Arrival Airport
Navaid (VOR, NDB)
Fix

Horizontal Profiles

Position Reports

Time Latitude Longitude Heading Altitude Ground
Speed
25-Jun-19 13:26 40.509569 -122.298004 180 496ft 0kts
25-Jun-19 13:27 40.509569 -122.298004 180 496ft 0kts
25-Jun-19 13:28 40.509569 -122.298004 180 496ft 0kts
25-Jun-19 13:29 40.509569 -122.298004 180 496ft 0kts
25-Jun-19 13:30 40.509569 -122.298004 180 496ft 0kts
25-Jun-19 13:31 40.509569 -122.298004 180 496ft 0kts
25-Jun-19 13:32 40.509569 -122.298004 179 496ft 0kts
25-Jun-19 13:33 40.509569 -122.298004 179 496ft 0kts
25-Jun-19 13:34 40.509569 -122.298004 179 496ft 0kts
25-Jun-19 13:35 40.509569 -122.298004 179 496ft 0kts
25-Jun-19 13:36 40.509569 -122.298004 179 496ft 0kts
25-Jun-19 13:37 40.509569 -122.298004 179 496ft 0kts
25-Jun-19 13:38 40.509569 -122.298004 179 496ft 0kts
25-Jun-19 13:39 40.509569 -122.298004 179 496ft 0kts
25-Jun-19 13:40 40.508184 -122.297614 140 495ft 6kts
25-Jun-19 13:41 40.512390 -122.296297 1 497ft 22kts
25-Jun-19 13:42 40.518479 -122.296284 1 502ft 22kts
25-Jun-19 13:43 40.520522 -122.296198 107 502ft 0kts
25-Jun-19 13:44 40.520416 -122.296056 150 502ft 11kts
25-Jun-19 13:45 40.513301 -122.294844 180 500ft 95kts
25-Jun-19 13:46 40.486882 -122.292411 175 1406ft 99kts
25-Jun-19 13:47 40.459793 -122.290768 175 2381ft 100kts
25-Jun-19 13:48 40.432175 -122.287996 174 3320ft 103kts
25-Jun-19 13:49 40.420062 -122.269203 32 4175ft 98kts
25-Jun-19 13:50 40.442403 -122.248532 32 5085ft 100kts
25-Jun-19 13:51 40.464851 -122.226683 33 5977ft 103kts
25-Jun-19 13:52 40.487228 -122.203113 23 6840ft 105kts
25-Jun-19 13:53 40.514818 -122.196239 5 7637ft 104kts
25-Jun-19 13:54 40.541066 -122.204636 332 8344ft 100kts
25-Jun-19 13:55 40.565868 -122.221449 323 9021ft 103kts
25-Jun-19 13:56 40.592171 -122.237714 327 9708ft 107kts
25-Jun-19 13:57 40.619276 -122.254126 331 10376ft 112kts
25-Jun-19 13:58 40.647292 -122.270431 325 11054ft 113kts
25-Jun-19 13:59 40.674395 -122.290449 317 11753ft 113kts
25-Jun-19 14:00 40.701929 -122.311438 324 12461ft 119kts
25-Jun-19 14:01 40.730988 -122.330657 321 13264ft 116kts
25-Jun-19 14:02 40.758632 -122.348819 320 14130ft 111kts
25-Jun-19 14:03 40.785395 -122.366319 319 14973ft 110kts
25-Jun-19 14:04 40.813763 -122.384987 320 15586ft 121kts
25-Jun-19 14:05 40.844642 -122.405305 320 16194ft 128kts
25-Jun-19 14:06 40.876662 -122.426371 320 16789ft 132kts
25-Jun-19 14:07 40.909513 -122.447991 319 17381ft 134kts
25-Jun-19 14:08 40.942649 -122.469800 319 18007ft 133kts
25-Jun-19 14:09 40.974419 -122.490697 317 18773ft 126kts
25-Jun-19 14:10 41.004429 -122.510519 314 19535ft 116kts
25-Jun-19 14:11 41.034413 -122.530860 315 19882ft 142kts
25-Jun-19 14:12 41.073059 -122.556891 317 19891ft 169kts
25-Jun-19 14:13 41.115209 -122.584490 318 19908ft 180kts
25-Jun-19 14:14 41.160393 -122.614232 318 19927ft 184kts
25-Jun-19 14:15 41.206000 -122.644458 318 19941ft 187kts
25-Jun-19 14:16 41.252215 -122.675205 318 19946ft 191kts
25-Jun-19 14:17 41.299448 -122.706700 318 19947ft 195kts
25-Jun-19 14:18 41.347543 -122.738773 318 19945ft 197kts
25-Jun-19 14:19 41.395825 -122.771046 318 19945ft 197kts
25-Jun-19 14:20 41.444378 -122.803367 322 19944ft 201kts
25-Jun-19 14:21 41.502561 -122.812231 343 19946ft 216kts
25-Jun-19 14:22 41.562696 -122.818485 343 19947ft 216kts
25-Jun-19 14:23 41.622594 -122.824635 343 19946ft 217kts
25-Jun-19 14:24 41.682802 -122.830806 343 19947ft 217kts
25-Jun-19 14:25 41.742957 -122.836989 343 19925ft 218kts
25-Jun-19 14:26 41.803224 -122.843170 343 19920ft 217kts
25-Jun-19 14:27 41.862726 -122.849302 343 19921ft 217kts
25-Jun-19 14:28 41.921963 -122.855399 343 19922ft 217kts
25-Jun-19 14:30 41.981001 -122.861491 343 19920ft 217kts
25-Jun-19 14:31 42.040082 -122.867612 343 19917ft 217kts
25-Jun-19 14:32 42.095859 -122.873401 343 19914ft 217kts
25-Jun-19 14:33 42.147744 -122.878778 343 19905ft 216kts
25-Jun-19 14:34 42.198482 -122.884041 343 19905ft 215kts
25-Jun-19 14:35 42.250041 -122.889407 343 19906ft 215kts
25-Jun-19 14:36 42.319847 -122.896713 343 19908ft 214kts
25-Jun-19 14:37 42.385900 -122.903633 343 19908ft 214kts
25-Jun-19 14:38 42.442167 -122.909538 343 19907ft 214kts
25-Jun-19 14:39 42.499836 -122.916344 340 19909ft 212kts
25-Jun-19 14:40 42.556015 -122.927320 339 19909ft 211kts
25-Jun-19 14:41 42.614262 -122.938295 340 19910ft 211kts
25-Jun-19 14:42 42.672292 -122.949037 340 19909ft 211kts
25-Jun-19 14:43 42.729456 -122.959622 340 19911ft 210kts
25-Jun-19 14:44 42.786407 -122.970180 340 19917ft 210kts
25-Jun-19 14:45 42.843477 -122.980778 340 19925ft 210kts
25-Jun-19 14:46 42.900290 -122.991351 340 19934ft 209kts
25-Jun-19 14:47 42.957221 -123.001977 342 19944ft 210kts
25-Jun-19 14:48 43.014534 -123.012685 343 19954ft 211kts
25-Jun-19 14:48 43.062231 -123.021607 344 19958ft 211kts
25-Jun-19 14:50 43.128886 -123.034097 344 19950ft 210kts
25-Jun-19 14:51 43.186315 -123.044885 344 19951ft 209kts
25-Jun-19 14:51 43.233774 -123.053822 344 19951ft 209kts
25-Jun-19 14:53 43.300119 -123.066334 344 19952ft 208kts
25-Jun-19 14:53 43.347394 -123.075265 344 19952ft 208kts
25-Jun-19 14:54 43.403774 -123.085934 344 19953ft 208kts
25-Jun-19 14:55 43.460010 -123.096597 344 19953ft 207kts
25-Jun-19 14:56 43.516981 -123.107419 344 19954ft 207kts
25-Jun-19 14:57 43.573674 -123.118208 344 19961ft 206kts
25-Jun-19 14:58 43.629602 -123.128873 344 19971ft 206kts
25-Jun-19 14:59 43.684897 -123.139438 344 19979ft 206kts
25-Jun-19 15:00 43.737726 -123.149549 344 19979ft 207kts
25-Jun-19 15:01 43.791743 -123.159901 344 19980ft 207kts
25-Jun-19 15:02 43.844497 -123.170030 344 19982ft 207kts
25-Jun-19 15:03 43.895890 -123.179918 344 19983ft 207kts
25-Jun-19 15:04 43.946302 -123.189637 344 19984ft 207kts
25-Jun-19 15:05 43.996165 -123.199267 344 19984ft 207kts
25-Jun-19 15:06 44.048095 -123.209311 344 19984ft 207kts
25-Jun-19 15:07 44.099528 -123.219236 344 19984ft 207kts
25-Jun-19 15:08 44.148453 -123.211024 9 19979ft 216kts
25-Jun-19 15:09 44.202148 -123.192225 9 19864ft 222kts
25-Jun-19 15:10 44.260628 -123.170626 10 19126ft 239kts
25-Jun-19 15:11 44.318346 -123.148709 11 18402ft 241kts
25-Jun-19 15:12 44.377224 -123.126302 11 17665ft 239kts
25-Jun-19 15:13 44.439005 -123.102761 11 16884ft 236kts
25-Jun-19 15:14 44.498159 -123.080177 12 16128ft 233kts
25-Jun-19 15:15 44.554024 -123.058813 12 15404ft 229kts
25-Jun-19 15:16 44.610364 -123.037231 12 14661ft 224kts
25-Jun-19 15:17 44.662251 -123.017381 12 13961ft 219kts
25-Jun-19 15:18 44.705584 -123.001384 11 13369ft 217kts
25-Jun-19 15:19 44.746479 -122.987145 11 12813ft 214kts
25-Jun-19 15:20 44.785774 -122.973328 12 12267ft 211kts
25-Jun-19 15:21 44.823728 -122.959896 12 11731ft 207kts
25-Jun-19 15:22 44.860783 -122.946315 14 11195ft 203kts
25-Jun-19 15:23 44.896318 -122.929698 16 10661ft 198kts
25-Jun-19 15:24 44.930819 -122.913421 15 10130ft 194kts
25-Jun-19 15:25 44.965945 -122.899455 12 9582ft 190kts
25-Jun-19 15:26 45.013517 -122.881420 13 8864ft 195kts
25-Jun-19 15:27 45.055246 -122.865251 14 8237ft 195kts
25-Jun-19 15:28 45.101652 -122.847152 15 7534ft 193kts
25-Jun-19 15:29 45.140044 -122.832080 15 6934ft 192kts
25-Jun-19 15:30 45.181429 -122.815779 15 6283ft 190kts
25-Jun-19 15:31 45.222640 -122.799629 15 5631ft 188kts
25-Jun-19 15:32 45.267507 -122.782025 15 4914ft 187kts
25-Jun-19 15:33 45.304218 -122.767603 14 4321ft 185kts
25-Jun-19 15:34 45.339569 -122.753680 14 3748ft 182kts
25-Jun-19 15:35 45.374372 -122.739970 14 3178ft 181kts
25-Jun-19 15:36 45.404950 -122.727808 14 3012ft 151kts
25-Jun-19 15:37 45.432014 -122.717131 14 3015ft 135kts
25-Jun-19 15:38 45.456560 -122.707479 14 3017ft 129kts
25-Jun-19 15:39 45.479248 -122.698538 14 3018ft 129kts
25-Jun-19 15:40 45.502398 -122.689197 18 3018ft 129kts
25-Jun-19 15:41 45.523170 -122.669575 34 2874ft 140kts
25-Jun-19 15:42 45.544288 -122.645863 36 2530ft 143kts
25-Jun-19 15:43 45.564593 -122.622019 35 2075ft 136kts
25-Jun-19 15:44 45.584066 -122.603760 25 1683ft 114kts
25-Jun-19 15:45 45.603960 -122.602499 314 1083ft 92kts
25-Jun-19 15:46 45.616836 -122.619341 284 562ft 77kts
25-Jun-19 15:47 45.618774 -122.640029 278 212ft 72kts
25-Jun-19 15:48 45.620526 -122.657256 277 28ft 41kts
25-Jun-19 15:49 45.621472 -122.662192 95 29ft 11kts
25-Jun-19 15:50 45.621327 -122.656938 38 29ft 6kts
25-Jun-19 15:51 45.621523 -122.655097 186 30ft 0kts
25-Jun-19 15:52 45.621523 -122.655097 186 30ft 0kts

Navigation Log

Ident Type
Flight plan parsing failed, navigation log unavailable